DLH999 LOWW-LOWG
Flight info
| Callsign | DLH999 |
|---|---|
| Flight time | 0h 23m |
| Altitude | 14000 |
| Route | IRGO1A/11 LOWW/11 RUPET RUPET3M |
| Aircraft | A359/H-SDE2E3GHIJ3J4J5LM1ORWXY/LB1D1 |
Departure
| Time | 2026-05-06 19:18 |
|---|---|
| Airport | Vienna International Airport (LOWW) |
Arrival
| Time | 2026-05-06 19:42 |
|---|---|
| Airport | Graz Airport (LOWG) |
| Time | Latitude | Longitude | Altitude | Speed | Heading |
|---|---|---|---|---|---|
| 2026-05-06 19:01 | 48.11951 | 16.55301 | 617 ft | 0 kts | 295° |
| 2026-05-06 19:02 | 48.11957 | 16.55269 | 620 ft | 11 kts | 282° |
| 2026-05-06 19:02 | 48.11911 | 16.55151 | 631 ft | 16 kts | 243° |
| 2026-05-06 19:02 | 48.11928 | 16.55060 | 629 ft | 9 kts | 301° |
| 2026-05-06 19:03 | 48.11945 | 16.55016 | 629 ft | 0 kts | 297° |
| 2026-05-06 19:03 | 48.11956 | 16.54983 | 629 ft | 11 kts | 296° |
| 2026-05-06 19:03 | 48.11996 | 16.54860 | 628 ft | 15 kts | 296° |
| 2026-05-06 19:03 | 48.12045 | 16.54708 | 631 ft | 19 kts | 296° |
| 2026-05-06 19:04 | 48.12104 | 16.54528 | 624 ft | 22 kts | 296° |
| 2026-05-06 19:04 | 48.12176 | 16.54306 | 619 ft | 25 kts | 296° |
| 2026-05-06 19:04 | 48.12255 | 16.54060 | 631 ft | 27 kts | 297° |
| 2026-05-06 19:04 | 48.12340 | 16.53802 | 631 ft | 17 kts | 296° |
| 2026-05-06 19:05 | 48.12368 | 16.53716 | 625 ft | 10 kts | 296° |
| 2026-05-06 19:05 | 48.12385 | 16.53664 | 626 ft | 1 kts | 296° |
| 2026-05-06 19:05 | 48.12397 | 16.53627 | 631 ft | 13 kts | 295° |
| 2026-05-06 19:05 | 48.12407 | 16.53596 | 631 ft | 0 kts | 296° |
| 2026-05-06 19:07 | 48.12408 | 16.53595 | 631 ft | 2 kts | 296° |
| 2026-05-06 19:07 | 48.12421 | 16.53503 | 630 ft | 0 kts | 259° |
| 2026-05-06 19:07 | 48.12407 | 16.53460 | 631 ft | 14 kts | 232° |
| 2026-05-06 19:08 | 48.12400 | 16.53450 | 629 ft | 0 kts | 220° |
| 2026-05-06 19:08 | 48.12395 | 16.53446 | 630 ft | 0 kts | 213° |
| 2026-05-06 19:12 | 48.12326 | 16.53389 | 626 ft | 18 kts | 205° |
| 2026-05-06 19:12 | 48.12295 | 16.53373 | 631 ft | 1 kts | 181° |
| 2026-05-06 19:13 | 48.12252 | 16.53434 | 629 ft | 11 kts | 122° |
| 2026-05-06 19:13 | 48.12227 | 16.53506 | 631 ft | 0 kts | 117° |
| 2026-05-06 19:18 | 48.12172 | 16.53686 | 631 ft | 63 kts | 108° |
| 2026-05-06 19:18 | 48.11995 | 16.54187 | 631 ft | 122 kts | 122° |
| 2026-05-06 19:18 | 48.11742 | 16.54907 | 681 ft | 162 kts | 121° |
| 2026-05-06 19:18 | 48.11326 | 16.56219 | 1335 ft | 189 kts | 122° |
| 2026-05-06 19:19 | 48.10735 | 16.58012 | 2216 ft | 209 kts | 126° |
| 2026-05-06 19:19 | 48.10211 | 16.59575 | 2686 ft | 209 kts | 126° |
| 2026-05-06 19:19 | 48.09766 | 16.60943 | 3242 ft | 204 kts | 126° |
| 2026-05-06 19:19 | 48.09205 | 16.62684 | 3855 ft | 205 kts | 127° |
| 2026-05-06 19:20 | 48.08571 | 16.64587 | 4297 ft | 216 kts | 126° |
| 2026-05-06 19:20 | 48.07985 | 16.66360 | 4806 ft | 221 kts | 125° |
| 2026-05-06 19:20 | 48.07332 | 16.68327 | 5408 ft | 222 kts | 126° |
| 2026-05-06 19:20 | 48.06482 | 16.70060 | 5900 ft | 216 kts | 147° |
| 2026-05-06 19:21 | 48.05203 | 16.70934 | 6497 ft | 203 kts | 178° |
| 2026-05-06 19:21 | 48.03866 | 16.70848 | 7070 ft | 198 kts | 195° |
| 2026-05-06 19:21 | 48.02565 | 16.70400 | 7634 ft | 202 kts | 197° |
| 2026-05-06 19:21 | 48.01537 | 16.70028 | 8044 ft | 206 kts | 197° |
| 2026-05-06 19:22 | 48.00219 | 16.69560 | 8592 ft | 210 kts | 197° |
| 2026-05-06 19:22 | 47.98796 | 16.69063 | 8943 ft | 211 kts | 197° |
| 2026-05-06 19:22 | 47.97382 | 16.68569 | 8995 ft | 211 kts | 197° |
| 2026-05-06 19:22 | 47.96015 | 16.67783 | 8998 ft | 210 kts | 213° |
| 2026-05-06 19:23 | 47.94983 | 16.66261 | 8998 ft | 214 kts | 237° |
| 2026-05-06 19:23 | 47.94440 | 16.64024 | 8998 ft | 246 kts | 256° |
| 2026-05-06 19:23 | 47.94163 | 16.61403 | 9357 ft | 262 kts | 259° |
| 2026-05-06 19:23 | 47.93936 | 16.58972 | 9903 ft | 265 kts | 258° |
| 2026-05-06 19:24 | 47.93517 | 16.56269 | 10349 ft | 274 kts | 248° |
| 2026-05-06 19:24 | 47.92587 | 16.53713 | 10570 ft | 288 kts | 233° |
| 2026-05-06 19:24 | 47.91349 | 16.51308 | 10832 ft | 303 kts | 230° |
| 2026-05-06 19:24 | 47.89985 | 16.48803 | 11083 ft | 317 kts | 230° |
| 2026-05-06 19:25 | 47.88568 | 16.46223 | 11391 ft | 328 kts | 230° |
| 2026-05-06 19:25 | 47.87118 | 16.43589 | 11907 ft | 330 kts | 230° |
| 2026-05-06 19:25 | 47.85651 | 16.40928 | 12442 ft | 333 kts | 229° |
| 2026-05-06 19:25 | 47.84165 | 16.38236 | 12891 ft | 338 kts | 229° |
| 2026-05-06 19:26 | 47.82677 | 16.35544 | 13334 ft | 342 kts | 229° |
| 2026-05-06 19:26 | 47.81185 | 16.32849 | 13679 ft | 344 kts | 229° |
| 2026-05-06 19:26 | 47.79634 | 16.30049 | 13769 ft | 360 kts | 229° |
| 2026-05-06 19:26 | 47.78023 | 16.27146 | 13767 ft | 374 kts | 229° |
| 2026-05-06 19:27 | 47.76353 | 16.24138 | 13767 ft | 378 kts | 229° |
| 2026-05-06 19:27 | 47.74695 | 16.21153 | 13781 ft | 379 kts | 229° |
| 2026-05-06 19:27 | 47.73016 | 16.18133 | 13795 ft | 378 kts | 230° |
| 2026-05-06 19:27 | 47.71351 | 16.15145 | 13768 ft | 378 kts | 230° |
| 2026-05-06 19:28 | 47.69666 | 16.12121 | 13786 ft | 379 kts | 230° |
| 2026-05-06 19:28 | 47.67997 | 16.09131 | 13782 ft | 380 kts | 230° |
| 2026-05-06 19:28 | 47.66309 | 16.06111 | 13799 ft | 380 kts | 230° |
| 2026-05-06 19:28 | 47.64624 | 16.03098 | 13783 ft | 379 kts | 230° |
| 2026-05-06 19:29 | 47.62931 | 16.00074 | 13787 ft | 380 kts | 230° |
| 2026-05-06 19:29 | 47.61258 | 15.97090 | 13799 ft | 380 kts | 230° |
| 2026-05-06 19:29 | 47.59565 | 15.94076 | 13795 ft | 379 kts | 230° |
| 2026-05-06 19:29 | 47.57884 | 15.91083 | 13820 ft | 379 kts | 230° |
| 2026-05-06 19:30 | 47.56252 | 15.88183 | 13822 ft | 380 kts | 230° |
| 2026-05-06 19:30 | 47.54565 | 15.85187 | 13823 ft | 379 kts | 229° |
| 2026-05-06 19:30 | 47.52876 | 15.82190 | 13646 ft | 371 kts | 229° |
| 2026-05-06 19:30 | 47.51250 | 15.79309 | 13392 ft | 366 kts | 229° |
| 2026-05-06 19:31 | 47.49616 | 15.76415 | 13130 ft | 365 kts | 229° |
| 2026-05-06 19:31 | 47.47987 | 15.73533 | 12898 ft | 364 kts | 229° |
| 2026-05-06 19:31 | 47.44757 | 15.67825 | 12380 ft | 360 kts | 229° |
| 2026-05-06 19:32 | 47.43165 | 15.65022 | 12153 ft | 359 kts | 229° |
| 2026-05-06 19:32 | 47.41556 | 15.62195 | 11888 ft | 357 kts | 229° |
| 2026-05-06 19:32 | 47.39958 | 15.59388 | 11656 ft | 356 kts | 229° |
| 2026-05-06 19:32 | 47.38475 | 15.56533 | 11487 ft | 351 kts | 238° |
| 2026-05-06 19:33 | 47.37630 | 15.53268 | 11322 ft | 324 kts | 256° |
| 2026-05-06 19:33 | 47.37255 | 15.50084 | 11176 ft | 307 kts | 258° |
| 2026-05-06 19:33 | 47.36951 | 15.47082 | 11020 ft | 291 kts | 259° |
| 2026-05-06 19:33 | 47.36667 | 15.44185 | 10839 ft | 279 kts | 259° |
| 2026-05-06 19:34 | 47.36393 | 15.41381 | 10398 ft | 275 kts | 259° |
| 2026-05-06 19:34 | 47.36036 | 15.38623 | 9691 ft | 281 kts | 252° |
| 2026-05-06 19:34 | 47.35162 | 15.36058 | 9004 ft | 277 kts | 230° |
| 2026-05-06 19:34 | 47.33659 | 15.34404 | 8389 ft | 267 kts | 205° |
| 2026-05-06 19:35 | 47.31940 | 15.33626 | 8034 ft | 259 kts | 197° |
| 2026-05-06 19:35 | 47.30139 | 15.33287 | 7787 ft | 261 kts | 184° |
| 2026-05-06 19:35 | 47.28333 | 15.33589 | 7238 ft | 269 kts | 174° |
| 2026-05-06 19:35 | 47.26500 | 15.34213 | 6683 ft | 269 kts | 171° |
| 2026-05-06 19:36 | 47.24685 | 15.34909 | 5903 ft | 270 kts | 170° |
| 2026-05-06 19:36 | 47.22908 | 15.35607 | 5235 ft | 266 kts | 168° |
| 2026-05-06 19:36 | 47.21177 | 15.36313 | 4955 ft | 247 kts | 168° |
| 2026-05-06 19:36 | 47.19607 | 15.37160 | 4797 ft | 231 kts | 158° |
| 2026-05-06 19:37 | 47.18255 | 15.38152 | 4754 ft | 209 kts | 158° |
| 2026-05-06 19:37 | 47.16932 | 15.39035 | 4577 ft | 206 kts | 161° |
| 2026-05-06 19:37 | 47.15639 | 15.39744 | 4341 ft | 200 kts | 168° |
| 2026-05-06 19:37 | 47.14766 | 15.40063 | 4239 ft | 188 kts | 172° |
| 2026-05-06 19:38 | 47.13117 | 15.40384 | 3907 ft | 171 kts | 179° |
| 2026-05-06 19:38 | 47.11956 | 15.40551 | 3620 ft | 165 kts | 177° |
| 2026-05-06 19:38 | 47.10833 | 15.40787 | 3533 ft | 161 kts | 177° |
| 2026-05-06 19:38 | 47.09778 | 15.41032 | 3283 ft | 159 kts | 175° |
| 2026-05-06 19:39 | 47.08892 | 15.41263 | 3080 ft | 156 kts | 175° |
| 2026-05-06 19:39 | 47.07887 | 15.41539 | 2863 ft | 147 kts | 174° |
| 2026-05-06 19:39 | 47.06927 | 15.41807 | 2621 ft | 137 kts | 174° |
| 2026-05-06 19:39 | 47.06024 | 15.42054 | 2440 ft | 126 kts | 174° |
| 2026-05-06 19:40 | 47.05188 | 15.42282 | 2240 ft | 123 kts | 172° |
| 2026-05-06 19:40 | 47.04355 | 15.42512 | 2065 ft | 125 kts | 174° |
| 2026-05-06 19:40 | 47.03494 | 15.42746 | 1867 ft | 126 kts | 171° |
| 2026-05-06 19:40 | 47.02812 | 15.42946 | 1695 ft | 126 kts | 170° |
| 2026-05-06 19:41 | 47.02020 | 15.43163 | 1483 ft | 126 kts | 166° |
| 2026-05-06 19:41 | 47.01207 | 15.43386 | 1377 ft | 125 kts | 169° |
| 2026-05-06 19:41 | 47.00451 | 15.43600 | 1197 ft | 128 kts | 169° |
| 2026-05-06 19:41 | 46.99629 | 15.43813 | 1114 ft | 122 kts | 170° |
| 2026-05-06 19:42 | 46.99015 | 15.43985 | 1109 ft | 101 kts | 169° |
| 2026-05-06 19:42 | 46.98604 | 15.44102 | 1104 ft | 24 kts | 169° |
| 2026-05-06 19:42 | 46.98582 | 15.44108 | 1104 ft | 0 kts | 169° |
| 2026-05-06 19:42 | 46.98524 | 15.44125 | 1101 ft | 11 kts | 169° |
| 2026-05-06 19:43 | 46.98433 | 15.44146 | 1102 ft | 15 kts | 175° |
| 2026-05-06 19:43 | 46.98367 | 15.44161 | 1102 ft | 4 kts | 128° |
| 2026-05-06 19:43 | 46.98370 | 15.44174 | 1098 ft | 0 kts | 73° |
| 2026-05-06 19:43 | 46.98371 | 15.44175 | 1098 ft | 0 kts | 70° |
| 2026-05-06 19:44 | 46.98426 | 15.44196 | 1101 ft | 9 kts | 347° |
| 2026-05-06 19:44 | 46.98660 | 15.44084 | 1106 ft | 63 kts | 349° |
| 2026-05-06 19:45 | 46.99141 | 15.43951 | 1107 ft | 71 kts | 350° |
| 2026-05-06 19:45 | 46.99321 | 15.44046 | 1109 ft | 24 kts | 53° |
| 2026-05-06 19:45 | 46.99408 | 15.44204 | 1108 ft | 31 kts | 46° |
| 2026-05-06 19:45 | 46.99588 | 15.44243 | 1118 ft | 25 kts | 347° |
| 2026-05-06 19:46 | 46.99737 | 15.44190 | 1115 ft | 26 kts | 349° |
| 2026-05-06 19:46 | 46.99821 | 15.44174 | 1116 ft | 17 kts | 9° |
| 2026-05-06 19:46 | 46.99831 | 15.44181 | 1115 ft | 1 kts | 30° |